Humbird, WI (54746)

4:24 AM CDT on March 24, 2017 (GMT -0500)
KWIOSSEO2 | | Change Station

Elev 997 ft 44.59 °N, 91.27 °W | Updated 40 seconds ago

Rain
Rain
37.1 °F
Feels Like 37 °F
N
0.0
Wind Variable Wind from NNE
Gusts 0.0 mph

Today
High -- | Low -- °F
--% Chance of Precip.
Yesterday
High -- | Low -- °F
Precip. -- in
Pressure 29.86 in
Visibility 4.0 miles
Clouds Scattered Clouds 1500 ft
Mostly Cloudy 3000 ft
Overcast 9500 ft
Windchill 37 °F
Dew Point 35 °F
Humidity 93%
Rainfall 0.18 in
Snow Depth Not available.
6:58 AM 7:21 PM
Waning Crescent, 16% visible
METAR KBCK 240915Z AUTO 04004KT 4SM -RA SCT015 BKN030 OVC095 04/04 A2986 RMK AO2 P0002 T00350035
Pressure 29.86 in
Visibility 4.0 miles
Clouds Scattered Clouds 1500 ft
Mostly Cloudy 3000 ft
Overcast 9500 ft
Windchill 37 °F
Dew Point 35 °F
Humidity 93%
Rainfall 0.18 in
Snow Depth Not available.
6:58 AM 7:21 PM
Waning Crescent, 16% visible
METAR KBCK 240915Z AUTO 04004KT 4SM -RA SCT015 BKN030 OVC095 04/04 A2986 RMK AO2 P0002 T00350035

Get Severe Weather Alerts

Thanks for signing up!

Be on the lookout for a verification email in your inbox.

You'll start receiving the daily forecast at 8 AM.

×

10-Day Weather Forecast

Almanac

Astronomy

Mar. 24, 2017 Rise Set
Actual Time
Civil Twilight
Nautical Twilight
Astronomical Twilight
Moon
Length of Visible Light
Length of Day
Tomorrow will be .
, % of the Moon is Illuminated

Today's Extremes

State Highs State Lows

Community

WunderPhotos

Upload Photos

1,962,540 photos uploaded!

WunderBlog® & News

Nearby

Air Quality

  Air Quality AQ Index Pollutant
Not available.

Snow Depth

Station Depth Elevation

Earthquake Activity

City Distance Mag. Time & Date
Minimum magnitude displayed is 2.5.

Earthquake Activity

City Distance Mag. Time & Date
Minimum magnitude displayed is 2.5.

Coastal Water Temperatures

Place Temperature

Stations

Nearby Weather Stations

Station Location Temp. Windchill Dew Point Humidity Wind Precip. Elev Updated Type
                   

Watches & Warnings

There are currently no watches in effect.